createdAt,value
2022-09-12T00:04:52.884Z,4.10
2022-09-12T00:09:54.722Z,3.38
2022-09-12T00:14:56.461Z,4.28
2022-09-12T00:19:58.903Z,3.83
2022-09-12T00:25:02.904Z,3.92
2022-09-12T00:30:08.148Z,3.60
2022-09-12T00:35:10.075Z,4.70
2022-09-12T00:40:12.053Z,4.60
2022-09-12T00:45:32.303Z,4.03
2022-09-12T00:50:34.079Z,6.07
2022-09-12T00:55:40.759Z,6.70
2022-09-12T01:00:42.687Z,8.50
2022-09-12T01:06:07.621Z,7.75
2022-09-12T01:11:11.523Z,6.60
2022-09-12T01:16:13.463Z,5.40
2022-09-12T01:21:30.434Z,4.30
2022-09-12T01:26:38.178Z,3.65
2022-09-12T01:32:01.612Z,3.38
2022-09-12T01:37:41.810Z,3.42
2022-09-12T01:42:56.789Z,3.90
2022-09-12T01:48:28.357Z,4.55
2022-09-12T01:53:36.755Z,3.90
2022-09-12T01:58:51.375Z,5.43
2022-09-12T02:04:05.851Z,5.10
2022-09-12T02:09:12.822Z,5.22
2022-09-12T02:14:22.239Z,5.78
2022-09-12T02:19:29.740Z,7.00
2022-09-12T02:24:42.290Z,5.68
2022-09-12T02:29:45.622Z,4.25
2022-09-12T02:35:01.611Z,5.10
2022-09-12T02:40:04.032Z,4.35
2022-09-12T02:45:06.719Z,4.78
2022-09-12T02:50:09.440Z,5.90
2022-09-12T02:55:11.831Z,5.45
2022-09-12T03:00:14.191Z,4.80
2022-09-12T03:05:31.894Z,6.13
2022-09-12T03:10:59.949Z,8.05
2022-09-12T03:16:05.041Z,5.47
2022-09-12T03:21:32.018Z,4.05
2022-09-12T03:26:44.841Z,3.20
2022-09-12T03:31:55.563Z,3.30
2022-09-12T03:36:57.395Z,3.50
2022-09-12T03:41:59.191Z,3.20
2022-09-12T03:47:00.895Z,3.30
2022-09-12T03:52:02.813Z,2.92
2022-09-12T03:57:04.689Z,2.78
2022-09-12T04:02:06.775Z,3.08
2022-09-12T04:07:09.254Z,2.92
2022-09-12T04:12:11.252Z,2.95
2022-09-12T04:17:12.978Z,3.25
2022-09-12T04:22:14.936Z,2.75
2022-09-12T04:27:16.716Z,2.50
2022-09-12T04:32:18.901Z,2.95
2022-09-12T04:37:21.309Z,2.90
2022-09-12T04:42:23.587Z,2.97
2022-09-12T04:47:25.373Z,3.05
2022-09-12T04:52:27.199Z,3.22
2022-09-12T04:57:28.892Z,2.85
2022-09-12T05:02:30.742Z,2.60
2022-09-12T05:07:32.763Z,2.95
2022-09-12T05:12:34.567Z,3.03
2022-09-12T05:17:36.322Z,3.05
2022-09-12T05:22:38.092Z,3.08
2022-09-12T05:27:39.819Z,2.97
2022-09-12T05:32:41.511Z,3.35
2022-09-12T05:37:43.341Z,2.80
2022-09-12T05:42:45.069Z,2.90
2022-09-12T05:47:47.259Z,3.10
2022-09-12T05:52:49.035Z,2.95
2022-09-12T05:57:51.316Z,2.35
2022-09-12T06:02:56.130Z,2.60
2022-09-12T06:07:57.869Z,2.50
2022-09-12T06:12:59.613Z,2.80
2022-09-12T06:18:01.312Z,3.33
2022-09-12T06:23:03.091Z,3.60
2022-09-12T06:28:04.816Z,4.38
2022-09-12T06:33:06.531Z,4.60
2022-09-12T06:38:08.753Z,3.50
2022-09-12T06:43:16.538Z,3.55
2022-09-12T06:48:18.360Z,3.22
2022-09-12T06:53:20.186Z,3.00
2022-09-12T06:58:21.945Z,3.20
2022-09-12T07:03:23.669Z,3.35
2022-09-12T07:08:25.815Z,2.60
2022-09-12T07:13:27.965Z,3.53
2022-09-12T07:18:29.803Z,4.07
2022-09-12T07:23:31.850Z,4.38
2022-09-12T07:28:34.432Z,4.28
2022-09-12T07:33:36.730Z,3.10
2022-09-12T07:38:39.308Z,2.97
2022-09-12T07:43:41.980Z,2.92
2022-09-12T07:48:44.624Z,2.80
2022-09-12T07:53:47.205Z,2.80
2022-09-12T07:58:49.056Z,4.53
2022-09-12T08:03:54.809Z,2.70
2022-09-12T08:08:58.156Z,2.72
2022-09-12T08:14:01.862Z,2.70
2022-09-12T08:19:04.517Z,2.30
2022-09-12T08:24:07.093Z,1.90
2022-09-12T08:29:09.055Z,2.42
2022-09-12T08:34:10.889Z,2.30
2022-09-12T08:39:14.426Z,2.75
2022-09-12T08:44:22.124Z,2.72
2022-09-12T08:49:29.963Z,3.30
2022-09-12T08:54:32.905Z,2.55
2022-09-12T08:59:45.599Z,3.30
2022-09-12T09:04:52.793Z,2.40
2022-09-12T09:10:00.379Z,2.55
2022-09-12T09:15:26.452Z,1.75
2022-09-12T09:20:46.715Z,1.35
2022-09-12T09:26:27.336Z,1.60
2022-09-12T09:31:37.349Z,1.65
2022-09-12T09:37:01.687Z,1.45
2022-09-12T09:42:15.344Z,1.63
2022-09-12T09:47:18.538Z,1.67
2022-09-12T09:52:27.620Z,1.50
2022-09-12T09:57:35.339Z,1.30
2022-09-12T10:02:37.268Z,1.33
2022-09-12T10:07:39.010Z,1.65
2022-09-12T10:12:40.793Z,1.40
2022-09-12T10:17:44.707Z,1.70
2022-09-12T10:22:48.619Z,2.38
2022-09-12T10:27:56.499Z,1.98
2022-09-12T10:33:06.960Z,1.80
2022-09-12T10:38:17.625Z,1.67
2022-09-12T10:43:29.345Z,1.90
2022-09-12T10:48:32.560Z,1.58
2022-09-12T10:53:42.820Z,1.83
2022-09-12T10:59:09.057Z,1.48
2022-09-12T11:04:45.101Z,2.13
2022-09-12T11:09:53.940Z,2.33
2022-09-12T11:20:14.559Z,2.50
2022-09-12T11:25:32.032Z,2.50
2022-09-12T11:30:52.292Z,1.88
2022-09-12T11:35:57.314Z,1.90
2022-09-12T11:41:17.307Z,1.80
2022-09-12T11:46:39.962Z,1.73
2022-09-12T11:51:51.479Z,1.65
2022-09-12T11:57:21.106Z,1.67
2022-09-12T12:02:27.893Z,2.30
2022-09-12T12:07:45.189Z,1.70
2022-09-12T12:12:48.571Z,1.98
2022-09-12T12:18:08.496Z,2.55
2022-09-12T12:23:30.362Z,1.70
2022-09-12T12:28:50.690Z,3.28
2022-09-12T12:33:54.946Z,1.80
2022-09-12T12:38:57.017Z,2.28
2022-09-12T12:44:37.588Z,2.03
2022-09-12T12:49:39.332Z,2.08
2022-09-12T12:54:41.167Z,2.10
2022-09-12T12:59:52.962Z,2.53
2022-09-12T13:04:56.396Z,1.55
2022-09-12T13:09:59.501Z,1.60
2022-09-12T13:15:03.064Z,1.92
2022-09-12T13:20:29.712Z,2.67
2022-09-12T13:25:36.986Z,2.40
2022-09-12T13:31:03.174Z,1.90
2022-09-12T13:36:09.928Z,1.90
2022-09-12T13:41:31.452Z,2.10
2022-09-12T13:46:34.503Z,1.33
2022-09-12T13:51:36.384Z,2.40
2022-09-12T13:56:48.555Z,1.80
2022-09-12T14:01:50.679Z,1.95
2022-09-12T14:06:52.916Z,2.10
2022-09-12T14:11:55.852Z,2.42
2022-09-12T14:17:01.320Z,2.85
2022-09-12T14:22:03.218Z,1.75
2022-09-12T14:27:05.586Z,2.78
2022-09-12T14:32:24.710Z,1.70
2022-09-12T14:37:26.772Z,1.60
2022-09-12T14:42:31.673Z,1.60
2022-09-12T14:47:40.274Z,2.80
2022-09-12T14:52:43.571Z,1.98
2022-09-12T14:57:45.962Z,2.58
2022-09-12T15:02:49.955Z,1.77
2022-09-12T15:07:55.345Z,2.10
2022-09-12T15:13:09.174Z,5.57
2022-09-12T15:18:11.368Z,2.70
2022-09-12T15:23:20.988Z,2.65
2022-09-12T15:28:24.112Z,3.10
2022-09-12T15:33:26.201Z,4.75
2022-09-12T15:38:27.952Z,3.97
2022-09-12T15:43:29.637Z,3.55
2022-09-12T15:48:31.376Z,2.72
2022-09-12T15:53:33.203Z,2.30
2022-09-12T15:58:35.112Z,2.30
2022-09-12T16:03:36.962Z,2.20
2022-09-12T16:08:38.784Z,2.30
2022-09-12T16:13:40.559Z,2.25
2022-09-12T16:18:42.706Z,3.05
2022-09-12T16:23:45.800Z,5.00
2022-09-12T16:28:47.773Z,2.50
2022-09-12T16:33:49.952Z,2.42
2022-09-12T16:38:53.748Z,2.38
2022-09-12T16:43:55.919Z,2.65
2022-09-12T16:48:58.558Z,2.85
2022-09-12T16:54:00.467Z,2.80
2022-09-12T16:59:04.135Z,3.20
2022-09-12T17:04:06.759Z,3.83
2022-09-12T17:09:08.535Z,4.03
2022-09-12T17:14:11.312Z,4.35
2022-09-12T17:19:39.635Z,5.40
2022-09-12T17:24:42.067Z,2.97
2022-09-12T17:29:44.287Z,3.22
2022-09-12T17:34:46.123Z,4.43
2022-09-12T17:39:48.065Z,3.55
2022-09-12T17:44:50.436Z,3.72
2022-09-12T17:49:52.399Z,4.40
2022-09-12T17:54:54.268Z,5.85
2022-09-12T17:59:56.199Z,4.00
2022-09-12T18:04:57.946Z,4.82
2022-09-12T18:09:59.824Z,3.58
2022-09-12T18:15:01.876Z,4.35
2022-09-12T18:20:04.149Z,3.95
2022-09-12T18:25:06.179Z,5.47
2022-09-12T18:30:21.208Z,5.18
2022-09-12T18:35:23.628Z,7.07
2022-09-12T18:40:25.807Z,7.25
2022-09-12T18:45:27.603Z,8.20
2022-09-12T18:50:29.351Z,6.80
2022-09-12T18:55:32.665Z,4.20
2022-09-12T19:00:34.504Z,4.50
2022-09-12T19:05:36.264Z,5.25
2022-09-12T19:10:37.984Z,7.40
2022-09-12T19:15:40.459Z,9.25
2022-09-12T19:20:42.265Z,6.32
2022-09-12T19:25:45.540Z,3.97
2022-09-12T19:30:47.883Z,4.10
2022-09-12T19:35:50.828Z,5.15
2022-09-12T19:40:57.261Z,8.30
2022-09-12T19:46:00.395Z,5.00
2022-09-12T19:51:04.365Z,4.45
2022-09-12T19:56:06.173Z,4.60
2022-09-12T20:01:15.469Z,9.75
2022-09-12T20:06:18.220Z,7.00
2022-09-12T20:11:22.987Z,9.90
2022-09-12T20:16:29.043Z,7.47
2022-09-12T20:21:32.700Z,14.43
2022-09-12T20:26:34.694Z,20.42
2022-09-12T20:31:38.112Z,24.00
2022-09-12T20:36:39.836Z,18.95
2022-09-12T20:41:41.603Z,13.40
2022-09-12T20:46:43.532Z,9.85
2022-09-12T20:51:45.304Z,10.55
2022-09-12T20:56:47.057Z,12.15
2022-09-12T21:01:49.414Z,14.05
2022-09-12T21:06:51.718Z,14.00
2022-09-12T21:11:53.597Z,22.23
2022-09-12T21:16:55.370Z,24.77
2022-09-12T21:21:57.096Z,25.02
2022-09-12T21:27:03.441Z,22.77
2022-09-12T21:32:08.213Z,15.98
2022-09-12T21:37:11.788Z,7.85
2022-09-12T21:42:13.495Z,14.88
2022-09-12T21:47:15.451Z,24.73
2022-09-12T21:52:17.188Z,30.52
2022-09-12T21:57:19.033Z,30.80
2022-09-12T22:02:21.841Z,27.80
2022-09-12T22:07:24.918Z,23.52
2022-09-12T22:12:27.840Z,17.70
2022-09-12T22:17:29.848Z,16.65
2022-09-12T22:22:50.293Z,11.10
2022-09-12T22:27:52.987Z,10.23
2022-09-12T22:32:54.728Z,7.57
2022-09-12T22:37:56.468Z,5.55
2022-09-12T22:42:58.159Z,5.65
2022-09-12T22:48:00.998Z,5.68
2022-09-12T22:53:03.075Z,5.55
2022-09-12T22:58:04.847Z,5.70
2022-09-12T23:03:06.605Z,5.82
2022-09-12T23:08:08.597Z,5.68
2022-09-12T23:13:10.681Z,5.40
2022-09-12T23:18:12.454Z,6.10
2022-09-12T23:23:14.163Z,5.63
2022-09-12T23:28:15.895Z,5.60
2022-09-12T23:33:17.908Z,5.50
2022-09-12T23:38:19.624Z,5.80
2022-09-12T23:43:21.467Z,5.50
2022-09-12T23:48:23.312Z,5.25
2022-09-12T23:53:25.759Z,5.20
2022-09-12T23:58:27.907Z,4.97
